sensor_id;sensor_type;location;lat;lon;timestamp;pressure;altitude;pressure_sealevel;temperature;humidity
26807;BME280;14380;49.910;6.792;2022-08-03T00:01:02;98881.97;;;18.87;98.83
26807;BME280;14380;49.910;6.792;2022-08-03T00:03:30;98885.63;;;18.86;99.01
26807;BME280;14380;49.910;6.792;2022-08-03T00:05:57;98888.72;;;18.81;100.00
26807;BME280;14380;49.910;6.792;2022-08-03T00:08:24;98886.06;;;18.29;100.00
26807;BME280;14380;49.910;6.792;2022-08-03T00:10:50;98890.94;;;18.76;99.24
26807;BME280;14380;49.910;6.792;2022-08-03T00:13:17;98883.66;;;18.88;99.20
26807;BME280;14380;49.910;6.792;2022-08-03T00:15:44;98884.06;;;18.83;99.04
26807;BME280;14380;49.910;6.792;2022-08-03T00:18:10;98887.38;;;18.66;100.00
26807;BME280;14380;49.910;6.792;2022-08-03T00:20:38;98881.63;;;18.70;100.00
26807;BME280;14380;49.910;6.792;2022-08-03T00:23:05;98883.19;;;18.73;100.00
26807;BME280;14380;49.910;6.792;2022-08-03T00:25:33;98885.81;;;18.32;100.00
26807;BME280;14380;49.910;6.792;2022-08-03T00:28:00;98882.59;;;18.17;100.00
26807;BME280;14380;49.910;6.792;2022-08-03T00:30:27;98876.59;;;18.25;100.00
26807;BME280;14380;49.910;6.792;2022-08-03T00:32:54;98885.47;;;18.56;100.00
26807;BME280;14380;49.910;6.792;2022-08-03T00:35:21;98876.44;;;18.48;100.00
26807;BME280;14380;49.910;6.792;2022-08-03T00:37:49;98872.59;;;18.40;100.00
26807;BME280;14380;49.910;6.792;2022-08-03T00:40:17;98880.84;;;18.06;100.00
26807;BME280;14380;49.910;6.792;2022-08-03T00:42:48;98871.59;;;18.10;100.00
26807;BME280;14380;49.910;6.792;2022-08-03T00:45:16;98870.81;;;18.20;100.00
26807;BME280;14380;49.910;6.792;2022-08-03T00:47:43;98870.66;;;18.21;100.00
26807;BME280;14380;49.910;6.792;2022-08-03T00:50:10;98865.28;;;18.42;100.00
26807;BME280;14380;49.910;6.792;2022-08-03T00:52:36;98863.09;;;18.26;100.00
26807;BME280;14380;49.910;6.792;2022-08-03T00:55:06;98870.78;;;18.41;100.00
26807;BME280;14380;49.910;6.792;2022-08-03T00:57:33;98872.31;;;18.12;100.00
26807;BME280;14380;49.910;6.792;2022-08-03T00:59:59;98874.31;;;17.99;100.00
26807;BME280;14380;49.910;6.792;2022-08-03T01:02:27;98867.63;;;18.26;100.00
26807;BME280;14380;49.910;6.792;2022-08-03T01:04:54;98871.06;;;18.38;100.00
26807;BME280;14380;49.910;6.792;2022-08-03T01:07:28;98865.69;;;18.38;100.00
26807;BME280;14380;49.910;6.792;2022-08-03T01:10:02;98861.44;;;18.35;100.00
26807;BME280;14380;49.910;6.792;2022-08-03T01:12:37;98861.44;;;18.35;100.00
26807;BME280;14380;49.910;6.792;2022-08-03T01:15:10;98862.31;;;18.36;100.00
26807;BME280;14380;49.910;6.792;2022-08-03T01:17:44;98858.13;;;18.43;100.00
26807;BME280;14380;49.910;6.792;2022-08-03T01:20:16;98858.66;;;18.37;100.00
26807;BME280;14380;49.910;6.792;2022-08-03T01:23:21;98858.47;;;18.28;100.00
26807;BME280;14380;49.910;6.792;2022-08-03T01:26:08;98855.94;;;18.27;100.00
26807;BME280;14380;49.910;6.792;2022-08-03T01:28:57;98857.63;;;18.28;100.00
26807;BME280;14380;49.910;6.792;2022-08-03T01:31:31;98846.38;;;18.34;100.00
26807;BME280;14380;49.910;6.792;2022-08-03T01:34:02;98845.72;;;18.32;100.00
26807;BME280;14380;49.910;6.792;2022-08-03T01:36:34;98863.22;;;17.82;100.00
26807;BME280;14380;49.910;6.792;2022-08-03T01:39:04;98856.88;;;17.83;100.00
26807;BME280;14380;49.910;6.792;2022-08-03T01:41:38;98853.16;;;17.75;100.00
26807;BME280;14380;49.910;6.792;2022-08-03T01:44:08;98851.13;;;17.67;100.00
26807;BME280;14380;49.910;6.792;2022-08-03T01:46:38;98850.19;;;17.89;100.00
26807;BME280;14380;49.910;6.792;2022-08-03T01:49:06;98845.66;;;17.90;100.00
26807;BME280;14380;49.910;6.792;2022-08-03T01:51:36;98844.16;;;17.97;100.00
26807;BME280;14380;49.910;6.792;2022-08-03T01:54:04;98842.25;;;17.99;100.00
26807;BME280;14380;49.910;6.792;2022-08-03T01:56:31;98841.75;;;17.73;100.00
26807;BME280;14380;49.910;6.792;2022-08-03T01:59:00;98851.28;;;17.87;100.00
26807;BME280;14380;49.910;6.792;2022-08-03T02:01:28;98846.28;;;17.93;100.00
26807;BME280;14380;49.910;6.792;2022-08-03T02:03:58;98848.25;;;17.59;100.00
26807;BME280;14380;49.910;6.792;2022-08-03T02:06:26;98849.09;;;17.59;100.00
26807;BME280;14380;49.910;6.792;2022-08-03T02:08:55;98841.19;;;17.25;100.00
26807;BME280;14380;49.910;6.792;2022-08-03T02:11:25;98840.63;;;17.54;100.00
26807;BME280;14380;49.910;6.792;2022-08-03T02:13:52;98845.06;;;17.65;100.00
26807;BME280;14380;49.910;6.792;2022-08-03T02:16:21;98840.84;;;17.62;100.00
26807;BME280;14380;49.910;6.792;2022-08-03T02:18:49;98841.41;;;17.66;100.00
26807;BME280;14380;49.910;6.792;2022-08-03T02:21:19;98847.41;;;17.58;100.00
26807;BME280;14380;49.910;6.792;2022-08-03T02:23:46;98847.47;;;17.68;100.00
26807;BME280;14380;49.910;6.792;2022-08-03T02:26:14;98848.19;;;17.70;100.00
26807;BME280;14380;49.910;6.792;2022-08-03T02:28:45;98840.91;;;17.72;100.00
26807;BME280;14380;49.910;6.792;2022-08-03T02:31:17;98833.56;;;17.64;100.00
26807;BME280;14380;49.910;6.792;2022-08-03T02:33:48;98841.16;;;17.69;100.00
26807;BME280;14380;49.910;6.792;2022-08-03T02:36:21;98845.06;;;17.65;100.00
26807;BME280;14380;49.910;6.792;2022-08-03T02:38:51;98842.53;;;17.63;100.00
26807;BME280;14380;49.910;6.792;2022-08-03T02:41:23;98842.53;;;17.63;100.00
26807;BME280;14380;49.910;6.792;2022-08-03T02:43:53;98844.94;;;17.66;100.00
26807;BME280;14380;49.910;6.792;2022-08-03T02:46:24;98840.69;;;17.64;100.00
26807;BME280;14380;49.910;6.792;2022-08-03T02:48:54;98838.44;;;17.80;100.00
26807;BME280;14380;49.910;6.792;2022-08-03T02:51:27;98835.09;;;17.67;100.00
26807;BME280;14380;49.910;6.792;2022-08-03T02:53:56;98843.31;;;17.75;100.00
26807;BME280;14380;49.910;6.792;2022-08-03T02:56:26;98835.78;;;17.80;100.00
26807;BME280;14380;49.910;6.792;2022-08-03T02:58:54;98836.81;;;17.68;100.00
26807;BME280;14380;49.910;6.792;2022-08-03T03:01:23;98841.75;;;17.73;100.00
26807;BME280;14380;49.910;6.792;2022-08-03T03:03:51;98832.28;;;17.68;100.00
26807;BME280;14380;49.910;6.792;2022-08-03T03:06:20;98835.81;;;17.69;100.00
26807;BME280;14380;49.910;6.792;2022-08-03T03:08:49;98836.81;;;17.68;100.00
26807;BME280;14380;49.910;6.792;2022-08-03T03:11:18;98830.28;;;17.61;100.00
26807;BME280;14380;49.910;6.792;2022-08-03T03:13:47;98839.66;;;17.55;100.00
26807;BME280;14380;49.910;6.792;2022-08-03T03:16:15;98836.72;;;17.58;100.00
26807;BME280;14380;49.910;6.792;2022-08-03T03:18:43;98839.03;;;17.51;100.00
26807;BME280;14380;49.910;6.792;2022-08-03T03:21:10;98829.09;;;17.53;100.00
26807;BME280;14380;49.910;6.792;2022-08-03T03:23:39;98838.03;;;17.64;100.00
26807;BME280;14380;49.910;6.792;2022-08-03T03:26:08;98831.56;;;17.66;100.00
26807;BME280;14380;49.910;6.792;2022-08-03T03:28:35;98829.50;;;17.70;100.00
26807;BME280;14380;49.910;6.792;2022-08-03T03:31:03;98828.59;;;17.60;100.00
26807;BME280;14380;49.910;6.792;2022-08-03T03:33:32;98832.88;;;17.51;100.00
26807;BME280;14380;49.910;6.792;2022-08-03T03:35:59;98821.25;;;17.41;100.00
26807;BME280;14380;49.910;6.792;2022-08-03T03:38:27;98829.75;;;17.34;100.00
26807;BME280;14380;49.910;6.792;2022-08-03T03:40:54;98828.50;;;17.17;100.00
26807;BME280;14380;49.910;6.792;2022-08-03T03:43:22;98829.75;;;17.34;100.00
26807;BME280;14380;49.910;6.792;2022-08-03T03:45:49;98826.75;;;17.39;100.00
26807;BME280;14380;49.910;6.792;2022-08-03T03:48:18;98832.56;;;17.33;100.00
26807;BME280;14380;49.910;6.792;2022-08-03T03:50:45;98826.84;;;17.37;100.00
26807;BME280;14380;49.910;6.792;2022-08-03T03:53:13;98836.22;;;17.32;100.00
26807;BME280;14380;49.910;6.792;2022-08-03T03:55:40;98833.06;;;17.27;100.00
26807;BME280;14380;49.910;6.792;2022-08-03T03:58:07;98831.38;;;17.26;100.00
26807;BME280;14380;49.910;6.792;2022-08-03T04:00:35;98831.59;;;17.34;100.00
26807;BME280;14380;49.910;6.792;2022-08-03T04:03:02;98832.09;;;17.28;100.00
26807;BME280;14380;49.910;6.792;2022-08-03T04:05:29;98835.59;;;17.28;100.00
26807;BME280;14380;49.910;6.792;2022-08-03T04:08:15;98834.53;;;17.19;100.00
26807;BME280;14380;49.910;6.792;2022-08-03T04:11:08;98841.00;;;17.17;100.00
26807;BME280;14380;49.910;6.792;2022-08-03T04:13:38;98833.19;;;17.25;100.00
26807;BME280;14380;49.910;6.792;2022-08-03T04:16:09;98839.63;;;17.22;100.00
26807;BME280;14380;49.910;6.792;2022-08-03T04:18:39;98842.56;;;17.19;100.00
26807;BME280;14380;49.910;6.792;2022-08-03T04:21:10;98843.38;;;17.31;100.00
26807;BME280;14380;49.910;6.792;2022-08-03T04:23:42;98844.09;;;17.33;100.00
26807;BME280;14380;49.910;6.792;2022-08-03T04:26:12;98850.09;;;17.14;100.00
26807;BME280;14380;49.910;6.792;2022-08-03T04:28:40;98842.81;;;17.16;100.00
26807;BME280;14380;49.910;6.792;2022-08-03T04:31:11;98844.97;;;17.22;100.00
26807;BME280;14380;49.910;6.792;2022-08-03T04:33:40;98842.63;;;17.29;100.00
26807;BME280;14380;49.910;6.792;2022-08-03T04:36:14;98845.16;;;17.42;100.00
26807;BME280;14380;49.910;6.792;2022-08-03T04:38:50;98846.22;;;17.51;100.00
26807;BME280;14380;49.910;6.792;2022-08-03T04:41:18;98850.94;;;17.47;100.00
26807;BME280;14380;49.910;6.792;2022-08-03T04:43:47;98849.16;;;17.48;100.00
26807;BME280;14380;49.910;6.792;2022-08-03T04:46:16;98854.25;;;17.39;100.00
26807;BME280;14380;49.910;6.792;2022-08-03T04:48:45;98842.69;;;17.50;100.00
26807;BME280;14380;49.910;6.792;2022-08-03T04:51:12;98841.63;;;17.42;100.00
26807;BME280;14380;49.910;6.792;2022-08-03T04:53:39;98840.84;;;17.30;100.00
26807;BME280;14380;49.910;6.792;2022-08-03T04:56:06;98845.06;;;17.65;100.00
26807;BME280;14380;49.910;6.792;2022-08-03T04:58:33;98848.00;;;17.83;100.00
26807;BME280;14380;49.910;6.792;2022-08-03T05:01:00;98846.84;;;17.97;100.00
26807;BME280;14380;49.910;6.792;2022-08-03T05:03:28;98849.69;;;18.48;100.00
26807;BME280;14380;49.910;6.792;2022-08-03T05:05:55;98843.19;;;19.12;100.00
26807;BME280;14380;49.910;6.792;2022-08-03T05:08:22;98848.88;;;19.19;100.00
26807;BME280;14380;49.910;6.792;2022-08-03T05:10:49;98850.00;;;19.56;100.00
26807;BME280;14380;49.910;6.792;2022-08-03T05:13:15;98842.41;;;20.00;96.25
26807;BME280;14380;49.910;6.792;2022-08-03T05:15:42;98845.84;;;20.40;93.83
26807;BME280;14380;49.910;6.792;2022-08-03T05:18:09;98841.38;;;20.11;95.57
26807;BME280;14380;49.910;6.792;2022-08-03T05:20:37;98849.38;;;20.41;93.28
26807;BME280;14380;49.910;6.792;2022-08-03T05:23:04;98845.16;;;20.38;93.79
26807;BME280;14380;49.910;6.792;2022-08-03T05:25:30;98847.00;;;20.28;95.00
26807;BME280;14380;49.910;6.792;2022-08-03T05:27:57;98848.84;;;20.65;93.05
26807;BME280;14380;49.910;6.792;2022-08-03T05:30:23;98843.44;;;21.49;91.14
26807;BME280;14380;49.910;6.792;2022-08-03T05:32:50;98845.41;;;21.75;88.81
26807;BME280;14380;49.910;6.792;2022-08-03T05:35:17;98844.31;;;21.49;88.27
26807;BME280;14380;49.910;6.792;2022-08-03T05:37:45;98843.78;;;21.64;87.45
26807;BME280;14380;49.910;6.792;2022-08-03T05:40:12;98852.16;;;21.61;88.14
26807;BME280;14380;49.910;6.792;2022-08-03T05:42:39;98848.38;;;21.90;88.90
26807;BME280;14380;49.910;6.792;2022-08-03T05:45:06;98847.47;;;22.25;87.45
26807;BME280;14380;49.910;6.792;2022-08-03T05:47:39;98846.19;;;22.38;84.77
26807;BME280;14380;49.910;6.792;2022-08-03T05:50:09;98849.84;;;22.28;84.82
26807;BME280;14380;49.910;6.792;2022-08-03T05:52:36;98844.03;;;22.68;82.84
26807;BME280;14380;49.910;6.792;2022-08-03T05:55:05;98841.47;;;23.01;81.77
26807;BME280;14380;49.910;6.792;2022-08-03T05:57:31;98847.75;;;22.75;82.71
26807;BME280;14380;49.910;6.792;2022-08-03T05:59:58;98836.88;;;23.36;81.65
26807;BME280;14380;49.910;6.792;2022-08-03T06:02:25;98839.94;;;23.41;82.17
26807;BME280;14380;49.910;6.792;2022-08-03T06:04:52;98842.31;;;23.53;82.18
26807;BME280;14380;49.910;6.792;2022-08-03T06:07:18;98841.69;;;24.00;77.42
26807;BME280;14380;49.910;6.792;2022-08-03T06:09:45;98847.19;;;23.66;77.75
26807;BME280;14380;49.910;6.792;2022-08-03T06:12:13;98845.88;;;24.03;77.69
26807;BME280;14380;49.910;6.792;2022-08-03T06:14:40;98844.53;;;23.99;77.00
26807;BME280;14380;49.910;6.792;2022-08-03T06:17:07;98846.75;;;24.03;77.35
26807;BME280;14380;49.910;6.792;2022-08-03T06:19:33;98838.94;;;24.33;77.48
26807;BME280;14380;49.910;6.792;2022-08-03T06:22:00;98839.97;;;23.91;78.07
26807;BME280;14380;49.910;6.792;2022-08-03T06:24:27;98836.38;;;24.32;78.57
26807;BME280;14380;49.910;6.792;2022-08-03T06:26:53;98847.38;;;24.22;80.74
26807;BME280;14380;49.910;6.792;2022-08-03T06:29:22;98838.22;;;24.48;78.99
26807;BME280;14380;49.910;6.792;2022-08-03T06:31:48;98839.59;;;24.92;78.32
26807;BME280;14380;49.910;6.792;2022-08-03T06:34:15;98846.38;;;24.88;77.71
26807;BME280;14380;49.910;6.792;2022-08-03T06:36:42;98841.38;;;25.08;75.70
26807;BME280;14380;49.910;6.792;2022-08-03T06:39:08;98840.59;;;25.31;76.57
26807;BME280;14380;49.910;6.792;2022-08-03T06:41:37;98837.81;;;25.16;75.32
26807;BME280;14380;49.910;6.792;2022-08-03T06:44:04;98837.88;;;25.31;74.62
26807;BME280;14380;49.910;6.792;2022-08-03T06:46:32;98839.50;;;25.40;75.78
26807;BME280;14380;49.910;6.792;2022-08-03T06:48:58;98844.00;;;25.56;73.57
26807;BME280;14380;49.910;6.792;2022-08-03T06:51:25;98847.53;;;25.80;74.27
26807;BME280;14380;49.910;6.792;2022-08-03T06:53:52;98848.28;;;25.89;73.83
26807;BME280;14380;49.910;6.792;2022-08-03T06:56:18;98851.13;;;25.95;73.43
26807;BME280;14380;49.910;6.792;2022-08-03T06:58:45;98849.09;;;25.97;71.90
26807;BME280;14380;49.910;6.792;2022-08-03T07:01:13;98847.19;;;26.21;72.66
26807;BME280;14380;49.910;6.792;2022-08-03T07:03:41;98848.59;;;26.32;72.91
26807;BME280;14380;49.910;6.792;2022-08-03T07:06:08;98851.16;;;26.64;70.59
26807;BME280;14380;49.910;6.792;2022-08-03T07:08:34;98853.22;;;26.92;70.05
26807;BME280;14380;49.910;6.792;2022-08-03T07:11:01;98853.31;;;26.98;70.34
26807;BME280;14380;49.910;6.792;2022-08-03T07:13:28;98843.34;;;27.21;69.98
26807;BME280;14380;49.910;6.792;2022-08-03T07:15:55;98844.06;;;27.29;68.63
26807;BME280;14380;49.910;6.792;2022-08-03T07:18:21;98845.53;;;27.47;68.48
26807;BME280;14380;49.910;6.792;2022-08-03T07:20:50;98847.69;;;27.37;67.75
26807;BME280;14380;49.910;6.792;2022-08-03T07:23:16;98842.28;;;27.73;67.77
26807;BME280;14380;49.910;6.792;2022-08-03T07:25:43;98846.66;;;27.74;67.40
26807;BME280;14380;49.910;6.792;2022-08-03T07:28:10;98844.94;;;27.95;66.78
26807;BME280;14380;49.910;6.792;2022-08-03T07:30:36;98844.78;;;27.97;67.71
26807;BME280;14380;49.910;6.792;2022-08-03T07:33:03;98853.75;;;27.75;65.01
26807;BME280;14380;49.910;6.792;2022-08-03T07:35:30;98850.03;;;28.05;65.96
26807;BME280;14380;49.910;6.792;2022-08-03T07:37:58;98847.75;;;28.30;66.55
26807;BME280;14380;49.910;6.792;2022-08-03T07:40:24;98847.84;;;28.79;62.55
26807;BME280;14380;49.910;6.792;2022-08-03T07:42:51;98836.81;;;28.52;64.02
26807;BME280;14380;49.910;6.792;2022-08-03T07:45:18;98851.16;;;28.39;64.39
26807;BME280;14380;49.910;6.792;2022-08-03T07:47:45;98851.97;;;28.33;65.42
26807;BME280;14380;49.910;6.792;2022-08-03T07:50:12;98847.38;;;29.11;61.78
26807;BME280;14380;49.910;6.792;2022-08-03T07:52:39;98849.59;;;28.87;61.49
26807;BME280;14380;49.910;6.792;2022-08-03T07:55:16;98845.69;;;29.03;62.67
26807;BME280;14380;49.910;6.792;2022-08-03T07:57:43;98842.16;;;29.16;61.07
26807;BME280;14380;49.910;6.792;2022-08-03T08:00:13;98842.22;;;29.36;61.80
26807;BME280;14380;49.910;6.792;2022-08-03T08:02:40;98841.00;;;29.38;62.10
26807;BME280;14380;49.910;6.792;2022-08-03T08:05:08;98837.50;;;29.51;61.72
26807;BME280;14380;49.910;6.792;2022-08-03T08:07:35;98838.72;;;29.49;62.21
26807;BME280;14380;49.910;6.792;2022-08-03T08:10:02;98838.81;;;30.03;61.89
26807;BME280;14380;49.910;6.792;2022-08-03T08:12:30;98826.66;;;30.12;59.39
26807;BME280;14380;49.910;6.792;2022-08-03T08:14:57;98839.84;;;30.08;61.13
26807;BME280;14380;49.910;6.792;2022-08-03T08:17:24;98838.56;;;30.38;60.31
26807;BME280;14380;49.910;6.792;2022-08-03T08:19:50;98841.47;;;30.43;60.17
26807;BME280;14380;49.910;6.792;2022-08-03T08:22:17;98837.09;;;30.29;59.04
26807;BME280;14380;49.910;6.792;2022-08-03T08:24:44;98832.28;;;29.97;58.38
26807;BME280;14380;49.910;6.792;2022-08-03T08:27:13;98827.38;;;30.73;58.36
26807;BME280;14380;49.910;6.792;2022-08-03T08:29:41;98824.38;;;30.95;57.91
26807;BME280;14380;49.910;6.792;2022-08-03T08:32:08;98832.66;;;30.68;59.29
26807;BME280;14380;49.910;6.792;2022-08-03T08:34:35;98830.25;;;30.92;57.01
26807;BME280;14380;49.910;6.792;2022-08-03T08:37:02;98827.34;;;31.32;57.86
26807;BME280;14380;49.910;6.792;2022-08-03T08:39:29;98820.41;;;31.68;56.52
26807;BME280;14380;49.910;6.792;2022-08-03T08:41:55;98816.72;;;31.88;56.36
26807;BME280;14380;49.910;6.792;2022-08-03T08:44:22;98823.28;;;31.80;55.13
26807;BME280;14380;49.910;6.792;2022-08-03T08:46:52;98819.44;;;31.88;53.64
26807;BME280;14380;49.910;6.792;2022-08-03T08:49:22;98815.56;;;31.77;55.01
26807;BME280;14380;49.910;6.792;2022-08-03T08:51:50;98819.78;;;31.66;55.10
26807;BME280;14380;49.910;6.792;2022-08-03T08:54:19;98817.72;;;31.94;55.53
26807;BME280;14380;49.910;6.792;2022-08-03T08:56:47;98815.38;;;32.23;54.70
26807;BME280;14380;49.910;6.792;2022-08-03T08:59:17;98815.69;;;32.33;53.92
26807;BME280;14380;49.910;6.792;2022-08-03T09:01:44;98816.25;;;32.16;53.63
26807;BME280;14380;49.910;6.792;2022-08-03T09:04:12;98816.97;;;32.05;53.04
26807;BME280;14380;49.910;6.792;2022-08-03T09:06:39;98819.03;;;31.84;54.06
26807;BME280;14380;49.910;6.792;2022-08-03T09:09:06;98811.22;;;32.76;53.04
26807;BME280;14380;49.910;6.792;2022-08-03T09:11:33;98814.91;;;32.88;53.56
26807;BME280;14380;49.910;6.792;2022-08-03T09:14:00;98814.59;;;31.58;53.92
26807;BME280;14380;49.910;6.792;2022-08-03T09:16:27;98811.81;;;31.97;53.34
26807;BME280;14380;49.910;6.792;2022-08-03T09:18:53;98805.09;;;31.93;52.66
26807;BME280;14380;49.910;6.792;2022-08-03T09:21:23;98813.91;;;32.20;52.83
26807;BME280;14380;49.910;6.792;2022-08-03T09:23:53;98807.88;;;32.37;52.21
26807;BME280;14380;49.910;6.792;2022-08-03T09:26:21;98811.09;;;32.27;52.30
26807;BME280;14380;49.910;6.792;2022-08-03T09:28:58;98810.16;;;32.40;51.24
26807;BME280;14380;49.910;6.792;2022-08-03T09:31:30;98809.78;;;32.92;50.86
26807;BME280;14380;49.910;6.792;2022-08-03T09:33:57;98810.28;;;32.26;50.82
26807;BME280;14380;49.910;6.792;2022-08-03T09:36:37;98807.50;;;32.33;50.34
26807;BME280;14380;49.910;6.792;2022-08-03T09:39:06;98802.78;;;32.40;50.46
26807;BME280;14380;49.910;6.792;2022-08-03T09:41:35;98798.63;;;32.56;50.17
26807;BME280;14380;49.910;6.792;2022-08-03T09:44:03;98793.59;;;32.53;49.09
26807;BME280;14380;49.910;6.792;2022-08-03T09:46:29;98788.44;;;32.63;48.76
26807;BME280;14380;49.910;6.792;2022-08-03T09:49:10;98788.59;;;32.69;47.69
26807;BME280;14380;49.910;6.792;2022-08-03T09:51:39;98773.41;;;32.73;47.90
26807;BME280;14380;49.910;6.792;2022-08-03T09:54:06;98761.66;;;33.33;47.68
26807;BME280;14380;49.910;6.792;2022-08-03T09:56:40;98779.06;;;34.17;47.00
26807;BME280;14380;49.910;6.792;2022-08-03T09:59:07;98780.34;;;34.03;47.30
26807;BME280;14380;49.910;6.792;2022-08-03T10:01:35;98777.13;;;33.70;46.36
26807;BME280;14380;49.910;6.792;2022-08-03T10:04:03;98781.22;;;33.91;46.86
26807;BME280;14380;49.910;6.792;2022-08-03T10:06:30;98779.84;;;34.42;46.37
26807;BME280;14380;49.910;6.792;2022-08-03T10:09:08;98776.84;;;34.67;46.46
26807;BME280;14380;49.910;6.792;2022-08-03T10:11:36;98775.63;;;34.75;45.35
26807;BME280;14380;49.910;6.792;2022-08-03T10:14:04;98771.84;;;34.64;45.71
26807;BME280;14380;49.910;6.792;2022-08-03T10:16:33;98771.63;;;34.53;46.47
26807;BME280;14380;49.910;6.792;2022-08-03T10:19:00;98768.09;;;34.05;46.77
26807;BME280;14380;49.910;6.792;2022-08-03T10:21:32;98761.16;;;33.79;47.04
26807;BME280;14380;49.910;6.792;2022-08-03T10:24:02;98768.06;;;34.53;45.47
26807;BME280;14380;49.910;6.792;2022-08-03T10:26:32;98768.41;;;34.57;44.63
26807;BME280;14380;49.910;6.792;2022-08-03T10:29:02;98772.00;;;34.98;44.70
26807;BME280;14380;49.910;6.792;2022-08-03T10:31:35;98775.69;;;35.04;43.44
26807;BME280;14380;49.910;6.792;2022-08-03T10:34:07;98762.38;;;34.83;44.27
26807;BME280;14380;49.910;6.792;2022-08-03T10:36:35;98759.94;;;35.28;43.94
26807;BME280;14380;49.910;6.792;2022-08-03T10:39:03;98756.63;;;34.56;44.72
26807;BME280;14380;49.910;6.792;2022-08-03T10:41:35;98759.16;;;34.46;44.29
26807;BME280;14380;49.910;6.792;2022-08-03T10:44:06;98755.78;;;34.44;43.57
26807;BME280;14380;49.910;6.792;2022-08-03T10:46:35;98748.50;;;34.49;44.05
26807;BME280;14380;49.910;6.792;2022-08-03T10:49:04;98746.09;;;34.94;44.07
26807;BME280;14380;49.910;6.792;2022-08-03T10:51:31;98743.13;;;35.24;42.73
26807;BME280;14380;49.910;6.792;2022-08-03T10:53:59;98735.59;;;35.66;42.96
26807;BME280;14380;49.910;6.792;2022-08-03T10:56:38;98728.78;;;35.51;43.66
26807;BME280;14380;49.910;6.792;2022-08-03T10:59:56;98728.56;;;35.92;41.97
26807;BME280;14380;49.910;6.792;2022-08-03T11:05:25;98724.50;;;35.95;42.43
26807;BME280;14380;49.910;6.792;2022-08-03T11:08:16;98715.63;;;35.53;43.17
26807;BME280;14380;49.910;6.792;2022-08-03T11:10:43;98723.88;;;35.53;43.19
26807;BME280;14380;49.910;6.792;2022-08-03T11:13:14;98733.22;;;34.94;45.05
26807;BME280;14380;49.910;6.792;2022-08-03T11:15:43;98728.13;;;35.15;44.93
26807;BME280;14380;49.910;6.792;2022-08-03T11:18:11;98726.44;;;35.60;43.76
26807;BME280;14380;49.910;6.792;2022-08-03T11:20:49;98728.44;;;35.48;43.21
26807;BME280;14380;49.910;6.792;2022-08-03T11:23:40;98723.81;;;35.36;44.10
26807;BME280;14380;49.910;6.792;2022-08-03T11:26:16;98713.44;;;34.92;43.98
26807;BME280;14380;49.910;6.792;2022-08-03T11:28:46;98719.94;;;36.23;44.14
26807;BME280;14380;49.910;6.792;2022-08-03T11:31:43;98714.16;;;35.17;43.85
26807;BME280;14380;49.910;6.792;2022-08-03T11:34:15;98716.28;;;35.61;43.79
26807;BME280;14380;49.910;6.792;2022-08-03T11:37:20;98710.41;;;36.08;43.42
26807;BME280;14380;49.910;6.792;2022-08-03T11:39:50;98712.06;;;36.09;43.54
26807;BME280;14380;49.910;6.792;2022-08-03T11:42:39;98715.41;;;35.94;43.36
26807;BME280;14380;49.910;6.792;2022-08-03T11:45:09;98708.31;;;36.15;43.20
26807;BME280;14380;49.910;6.792;2022-08-03T11:47:38;98706.63;;;35.58;43.77
26807;BME280;14380;49.910;6.792;2022-08-03T11:50:06;98707.34;;;35.87;43.13
26807;BME280;14380;49.910;6.792;2022-08-03T11:52:37;98694.75;;;36.31;42.50
26807;BME280;14380;49.910;6.792;2022-08-03T11:55:13;98701.78;;;36.44;43.30
26807;BME280;14380;49.910;6.792;2022-08-03T11:57:41;98697.94;;;36.00;43.26
26807;BME280;14380;49.910;6.792;2022-08-03T12:00:26;98694.34;;;36.00;43.33
26807;BME280;14380;49.910;6.792;2022-08-03T12:03:04;98692.00;;;36.09;42.96
26807;BME280;14380;49.910;6.792;2022-08-03T12:05:33;98688.34;;;35.86;44.26
26807;BME280;14380;49.910;6.792;2022-08-03T12:08:00;98688.72;;;35.72;44.82
26807;BME280;14380;49.910;6.792;2022-08-03T12:10:26;98690.63;;;35.72;43.17
26807;BME280;14380;49.910;6.792;2022-08-03T12:12:54;98681.38;;;35.78;43.26
26807;BME280;14380;49.910;6.792;2022-08-03T12:15:25;98687.38;;;35.75;44.00
26807;BME280;14380;49.910;6.792;2022-08-03T12:17:52;98685.81;;;35.45;43.76
26807;BME280;14380;49.910;6.792;2022-08-03T12:20:26;98678.59;;;34.93;44.03
26807;BME280;14380;49.910;6.792;2022-08-03T12:22:53;98681.06;;;35.23;44.20
26807;BME280;14380;49.910;6.792;2022-08-03T12:25:21;98681.75;;;36.04;44.28
26807;BME280;14380;49.910;6.792;2022-08-03T12:27:48;98674.75;;;35.40;43.63
26807;BME280;14380;49.910;6.792;2022-08-03T12:30:15;98682.53;;;34.68;44.95
26807;BME280;14380;49.910;6.792;2022-08-03T12:32:44;98678.72;;;35.15;44.43
26807;BME280;14380;49.910;6.792;2022-08-03T12:35:20;98673.84;;;34.88;44.57
26807;BME280;14380;49.910;6.792;2022-08-03T12:37:48;98675.59;;;34.94;44.39
26807;BME280;14380;49.910;6.792;2022-08-03T12:40:23;98668.88;;;35.48;43.78
26807;BME280;14380;49.910;6.792;2022-08-03T12:42:50;98663.19;;;35.38;44.42
26807;BME280;14380;49.910;6.792;2022-08-03T12:45:17;98665.16;;;35.60;43.85
26807;BME280;14380;49.910;6.792;2022-08-03T12:47:53;98667.59;;;35.95;43.37
26807;BME280;14380;49.910;6.792;2022-08-03T12:50:26;98668.88;;;36.05;42.89
26807;BME280;14380;49.910;6.792;2022-08-03T12:52:53;98662.81;;;36.47;42.76
26807;BME280;14380;49.910;6.792;2022-08-03T12:55:21;98663.50;;;36.87;42.61
26807;BME280;14380;49.910;6.792;2022-08-03T12:57:48;98660.47;;;36.88;41.60
26807;BME280;14380;49.910;6.792;2022-08-03T13:00:17;98659.97;;;36.42;43.11
26807;BME280;14380;49.910;6.792;2022-08-03T13:02:59;98654.41;;;36.59;42.52
26807;BME280;14380;49.910;6.792;2022-08-03T13:05:27;98662.84;;;37.40;41.96
26807;BME280;14380;49.910;6.792;2022-08-03T13:07:54;98662.75;;;37.62;41.18
26807;BME280;14380;49.910;6.792;2022-08-03T13:10:28;98664.47;;;38.16;40.79